sensor_id;sensor_type;location;lat;lon;timestamp;P1;durP1;ratioP1;P2;durP2;ratioP2
10715;SDS011;5409;42.620;23.316;2023-05-29T00:01:24;11.07;;;5.47;;
10715;SDS011;5409;42.620;23.316;2023-05-29T00:03:50;10.32;;;5.38;;
10715;SDS011;5409;42.620;23.316;2023-05-29T00:06:17;8.00;;;5.47;;
10715;SDS011;5409;42.620;23.316;2023-05-29T00:08:44;7.45;;;5.07;;
10715;SDS011;5409;42.620;23.316;2023-05-29T00:11:10;9.32;;;5.25;;
10715;SDS011;5409;42.620;23.316;2023-05-29T00:13:38;7.88;;;5.38;;
10715;SDS011;5409;42.620;23.316;2023-05-29T00:16:05;12.63;;;5.88;;
10715;SDS011;5409;42.620;23.316;2023-05-29T00:18:32;9.48;;;6.47;;
10715;SDS011;5409;42.620;23.316;2023-05-29T00:20:59;10.60;;;5.63;;
10715;SDS011;5409;42.620;23.316;2023-05-29T00:23:29;6.93;;;5.47;;
10715;SDS011;5409;42.620;23.316;2023-05-29T00:25:56;9.07;;;5.35;;
10715;SDS011;5409;42.620;23.316;2023-05-29T00:28:22;11.45;;;5.85;;
10715;SDS011;5409;42.620;23.316;2023-05-29T00:30:50;7.15;;;5.63;;
10715;SDS011;5409;42.620;23.316;2023-05-29T00:33:17;9.52;;;6.40;;
10715;SDS011;5409;42.620;23.316;2023-05-29T00:35:44;12.68;;;5.88;;
10715;SDS011;5409;42.620;23.316;2023-05-29T00:38:10;7.22;;;5.93;;
10715;SDS011;5409;42.620;23.316;2023-05-29T00:40:37;6.82;;;5.60;;
10715;SDS011;5409;42.620;23.316;2023-05-29T00:43:05;11.38;;;5.55;;
10715;SDS011;5409;42.620;23.316;2023-05-29T00:45:32;6.75;;;5.60;;
10715;SDS011;5409;42.620;23.316;2023-05-29T00:48:02;7.55;;;6.63;;
10715;SDS011;5409;42.620;23.316;2023-05-29T00:50:29;11.82;;;5.53;;
10715;SDS011;5409;42.620;23.316;2023-05-29T00:52:56;14.27;;;5.80;;
10715;SDS011;5409;42.620;23.316;2023-05-29T00:55:23;7.35;;;5.30;;
10715;SDS011;5409;42.620;23.316;2023-05-29T00:57:50;8.00;;;5.57;;
10715;SDS011;5409;42.620;23.316;2023-05-29T01:00:17;6.10;;;5.35;;
10715;SDS011;5409;42.620;23.316;2023-05-29T01:02:45;9.02;;;6.03;;
10715;SDS011;5409;42.620;23.316;2023-05-29T01:05:13;8.52;;;5.80;;
10715;SDS011;5409;42.620;23.316;2023-05-29T01:07:40;11.27;;;6.10;;
10715;SDS011;5409;42.620;23.316;2023-05-29T01:10:06;8.18;;;5.72;;
10715;SDS011;5409;42.620;23.316;2023-05-29T01:12:36;8.30;;;6.40;;
10715;SDS011;5409;42.620;23.316;2023-05-29T01:15:11;6.65;;;5.80;;
10715;SDS011;5409;42.620;23.316;2023-05-29T01:17:43;8.93;;;6.25;;
10715;SDS011;5409;42.620;23.316;2023-05-29T01:20:18;8.23;;;6.00;;
10715;SDS011;5409;42.620;23.316;2023-05-29T01:22:54;7.88;;;5.72;;
10715;SDS011;5409;42.620;23.316;2023-05-29T01:25:29;7.47;;;5.43;;
10715;SDS011;5409;42.620;23.316;2023-05-29T01:27:58;8.50;;;5.43;;
10715;SDS011;5409;42.620;23.316;2023-05-29T01:30:28;10.20;;;5.55;;
10715;SDS011;5409;42.620;23.316;2023-05-29T01:32:54;7.63;;;6.18;;
10715;SDS011;5409;42.620;23.316;2023-05-29T01:35:21;7.45;;;6.28;;
10715;SDS011;5409;42.620;23.316;2023-05-29T01:37:47;7.97;;;6.43;;
10715;SDS011;5409;42.620;23.316;2023-05-29T01:40:14;8.43;;;7.57;;
10715;SDS011;5409;42.620;23.316;2023-05-29T01:42:41;9.93;;;6.50;;
10715;SDS011;5409;42.620;23.316;2023-05-29T01:45:09;7.00;;;6.00;;
10715;SDS011;5409;42.620;23.316;2023-05-29T01:47:36;7.75;;;6.20;;
10715;SDS011;5409;42.620;23.316;2023-05-29T01:50:03;9.98;;;6.10;;
10715;SDS011;5409;42.620;23.316;2023-05-29T01:52:30;10.80;;;6.38;;
10715;SDS011;5409;42.620;23.316;2023-05-29T01:54:56;7.28;;;5.60;;
10715;SDS011;5409;42.620;23.316;2023-05-29T01:57:23;7.38;;;5.55;;
10715;SDS011;5409;42.620;23.316;2023-05-29T01:59:50;9.50;;;5.88;;
10715;SDS011;5409;42.620;23.316;2023-05-29T02:02:18;6.03;;;5.43;;
10715;SDS011;5409;42.620;23.316;2023-05-29T02:04:47;9.63;;;5.55;;
10715;SDS011;5409;42.620;23.316;2023-05-29T02:07:14;6.63;;;5.20;;
10715;SDS011;5409;42.620;23.316;2023-05-29T02:09:40;11.15;;;5.57;;
10715;SDS011;5409;42.620;23.316;2023-05-29T02:12:07;8.15;;;5.53;;
10715;SDS011;5409;42.620;23.316;2023-05-29T02:14:33;8.32;;;5.20;;
10715;SDS011;5409;42.620;23.316;2023-05-29T02:17:00;11.35;;;5.50;;
10715;SDS011;5409;42.620;23.316;2023-05-29T02:19:29;11.25;;;6.72;;
10715;SDS011;5409;42.620;23.316;2023-05-29T02:21:55;8.95;;;6.32;;
10715;SDS011;5409;42.620;23.316;2023-05-29T02:24:22;7.00;;;5.95;;
10715;SDS011;5409;42.620;23.316;2023-05-29T02:26:48;8.50;;;5.80;;
10715;SDS011;5409;42.620;23.316;2023-05-29T02:29:15;8.40;;;6.10;;
10715;SDS011;5409;42.620;23.316;2023-05-29T02:31:42;7.65;;;5.55;;
10715;SDS011;5409;42.620;23.316;2023-05-29T02:34:09;7.20;;;5.78;;
10715;SDS011;5409;42.620;23.316;2023-05-29T02:36:37;12.75;;;5.68;;
10715;SDS011;5409;42.620;23.316;2023-05-29T02:39:03;7.63;;;6.30;;
10715;SDS011;5409;42.620;23.316;2023-05-29T02:41:30;11.27;;;5.70;;
10715;SDS011;5409;42.620;23.316;2023-05-29T02:43:57;6.72;;;6.00;;
10715;SDS011;5409;42.620;23.316;2023-05-29T02:46:23;8.27;;;6.32;;
10715;SDS011;5409;42.620;23.316;2023-05-29T02:48:50;9.90;;;5.65;;
10715;SDS011;5409;42.620;23.316;2023-05-29T02:51:16;8.48;;;6.50;;
10715;SDS011;5409;42.620;23.316;2023-05-29T02:53:44;10.23;;;5.50;;
10715;SDS011;5409;42.620;23.316;2023-05-29T02:56:10;6.22;;;5.63;;
10715;SDS011;5409;42.620;23.316;2023-05-29T02:58:37;7.60;;;4.95;;
10715;SDS011;5409;42.620;23.316;2023-05-29T03:01:03;8.43;;;5.97;;
10715;SDS011;5409;42.620;23.316;2023-05-29T03:03:30;7.18;;;5.80;;
10715;SDS011;5409;42.620;23.316;2023-05-29T03:05:56;10.63;;;5.93;;
10715;SDS011;5409;42.620;23.316;2023-05-29T03:08:24;5.85;;;5.15;;
10715;SDS011;5409;42.620;23.316;2023-05-29T03:10:52;6.18;;;5.57;;
10715;SDS011;5409;42.620;23.316;2023-05-29T03:13:18;6.05;;;5.05;;
10715;SDS011;5409;42.620;23.316;2023-05-29T03:15:45;10.52;;;6.85;;
10715;SDS011;5409;42.620;23.316;2023-05-29T03:18:12;6.65;;;5.32;;
10715;SDS011;5409;42.620;23.316;2023-05-29T03:20:39;8.20;;;5.93;;
10715;SDS011;5409;42.620;23.316;2023-05-29T03:23:05;8.27;;;6.60;;
10715;SDS011;5409;42.620;23.316;2023-05-29T03:25:32;7.00;;;5.57;;
10715;SDS011;5409;42.620;23.316;2023-05-29T03:28:00;6.47;;;5.82;;
10715;SDS011;5409;42.620;23.316;2023-05-29T03:30:26;9.68;;;6.78;;
10715;SDS011;5409;42.620;23.316;2023-05-29T03:32:53;8.10;;;7.00;;
10715;SDS011;5409;42.620;23.316;2023-05-29T03:35:19;7.18;;;6.00;;
10715;SDS011;5409;42.620;23.316;2023-05-29T03:37:46;10.43;;;7.68;;
10715;SDS011;5409;42.620;23.316;2023-05-29T03:40:12;7.85;;;5.88;;
10715;SDS011;5409;42.620;23.316;2023-05-29T03:42:39;8.32;;;6.00;;
10715;SDS011;5409;42.620;23.316;2023-05-29T03:45:07;8.50;;;5.55;;
10715;SDS011;5409;42.620;23.316;2023-05-29T03:47:34;6.47;;;5.60;;
10715;SDS011;5409;42.620;23.316;2023-05-29T03:50:00;8.77;;;5.68;;
10715;SDS011;5409;42.620;23.316;2023-05-29T03:52:27;8.77;;;4.90;;
10715;SDS011;5409;42.620;23.316;2023-05-29T03:54:53;9.02;;;4.65;;
10715;SDS011;5409;42.620;23.316;2023-05-29T03:57:19;10.20;;;4.82;;
10715;SDS011;5409;42.620;23.316;2023-05-29T03:59:46;4.95;;;4.45;;
10715;SDS011;5409;42.620;23.316;2023-05-29T04:02:14;8.10;;;4.60;;
10715;SDS011;5409;42.620;23.316;2023-05-29T04:04:40;5.70;;;4.47;;
10715;SDS011;5409;42.620;23.316;2023-05-29T04:07:08;5.25;;;4.05;;
10715;SDS011;5409;42.620;23.316;2023-05-29T04:09:34;4.68;;;4.28;;
10715;SDS011;5409;42.620;23.316;2023-05-29T04:12:01;5.93;;;4.15;;
10715;SDS011;5409;42.620;23.316;2023-05-29T04:14:28;4.53;;;3.97;;
10715;SDS011;5409;42.620;23.316;2023-05-29T04:16:55;6.63;;;4.30;;
10715;SDS011;5409;42.620;23.316;2023-05-29T04:19:22;6.35;;;4.85;;
10715;SDS011;5409;42.620;23.316;2023-05-29T04:21:49;4.32;;;3.92;;
10715;SDS011;5409;42.620;23.316;2023-05-29T04:24:16;6.20;;;4.05;;
10715;SDS011;5409;42.620;23.316;2023-05-29T04:26:42;4.78;;;4.00;;
10715;SDS011;5409;42.620;23.316;2023-05-29T04:29:09;6.65;;;3.92;;
10715;SDS011;5409;42.620;23.316;2023-05-29T04:31:37;5.40;;;3.40;;
10715;SDS011;5409;42.620;23.316;2023-05-29T04:34:04;5.43;;;3.70;;
10715;SDS011;5409;42.620;23.316;2023-05-29T04:36:32;5.30;;;4.38;;
10715;SDS011;5409;42.620;23.316;2023-05-29T04:39:03;5.95;;;3.70;;
10715;SDS011;5409;42.620;23.316;2023-05-29T04:41:30;4.50;;;3.40;;
10715;SDS011;5409;42.620;23.316;2023-05-29T04:43:56;5.00;;;2.78;;
10715;SDS011;5409;42.620;23.316;2023-05-29T04:46:23;3.20;;;2.75;;
10715;SDS011;5409;42.620;23.316;2023-05-29T04:48:50;3.78;;;3.05;;
10715;SDS011;5409;42.620;23.316;2023-05-29T04:51:18;4.60;;;3.20;;
10715;SDS011;5409;42.620;23.316;2023-05-29T04:53:46;3.92;;;3.30;;
10715;SDS011;5409;42.620;23.316;2023-05-29T04:56:13;3.08;;;2.78;;
10715;SDS011;5409;42.620;23.316;2023-05-29T04:58:39;4.35;;;3.60;;
10715;SDS011;5409;42.620;23.316;2023-05-29T05:01:06;4.28;;;3.05;;
10715;SDS011;5409;42.620;23.316;2023-05-29T05:03:33;4.38;;;2.80;;
10715;SDS011;5409;42.620;23.316;2023-05-29T05:05:59;4.65;;;2.90;;
10715;SDS011;5409;42.620;23.316;2023-05-29T05:08:27;3.28;;;2.35;;
10715;SDS011;5409;42.620;23.316;2023-05-29T05:10:55;5.15;;;3.08;;
10715;SDS011;5409;42.620;23.316;2023-05-29T05:13:22;4.68;;;3.08;;
10715;SDS011;5409;42.620;23.316;2023-05-29T05:15:48;6.32;;;2.53;;
10715;SDS011;5409;42.620;23.316;2023-05-29T05:18:15;4.53;;;2.40;;
10715;SDS011;5409;42.620;23.316;2023-05-29T05:20:41;3.03;;;2.72;;
10715;SDS011;5409;42.620;23.316;2023-05-29T05:23:08;2.85;;;2.50;;
10715;SDS011;5409;42.620;23.316;2023-05-29T05:25:35;4.57;;;2.60;;
10715;SDS011;5409;42.620;23.316;2023-05-29T05:28:04;5.75;;;3.38;;
10715;SDS011;5409;42.620;23.316;2023-05-29T05:30:31;4.55;;;3.40;;
10715;SDS011;5409;42.620;23.316;2023-05-29T05:32:57;4.60;;;2.70;;
10715;SDS011;5409;42.620;23.316;2023-05-29T05:35:24;2.95;;;2.50;;
10715;SDS011;5409;42.620;23.316;2023-05-29T05:37:51;3.38;;;2.65;;
10715;SDS011;5409;42.620;23.316;2023-05-29T05:40:18;4.22;;;2.80;;
10715;SDS011;5409;42.620;23.316;2023-05-29T05:42:44;6.47;;;3.72;;
10715;SDS011;5409;42.620;23.316;2023-05-29T05:45:13;5.57;;;3.42;;
10715;SDS011;5409;42.620;23.316;2023-05-29T05:47:39;3.78;;;3.30;;
10715;SDS011;5409;42.620;23.316;2023-05-29T05:50:06;3.05;;;2.60;;
10715;SDS011;5409;42.620;23.316;2023-05-29T05:52:32;3.97;;;2.67;;
10715;SDS011;5409;42.620;23.316;2023-05-29T05:54:59;5.13;;;3.00;;
10715;SDS011;5409;42.620;23.316;2023-05-29T05:57:25;2.97;;;2.67;;
10715;SDS011;5409;42.620;23.316;2023-05-29T05:59:52;7.18;;;3.50;;
10715;SDS011;5409;42.620;23.316;2023-05-29T06:02:20;5.88;;;3.80;;
10715;SDS011;5409;42.620;23.316;2023-05-29T06:04:47;5.53;;;3.65;;
10715;SDS011;5409;42.620;23.316;2023-05-29T06:07:13;9.98;;;4.82;;
10715;SDS011;5409;42.620;23.316;2023-05-29T06:09:40;9.20;;;4.90;;
10715;SDS011;5409;42.620;23.316;2023-05-29T06:12:07;7.03;;;4.85;;
10715;SDS011;5409;42.620;23.316;2023-05-29T06:14:33;8.70;;;5.45;;
10715;SDS011;5409;42.620;23.316;2023-05-29T06:17:00;7.03;;;4.57;;
10715;SDS011;5409;42.620;23.316;2023-05-29T06:19:28;8.52;;;4.60;;
10715;SDS011;5409;42.620;23.316;2023-05-29T06:21:55;6.22;;;4.35;;
10715;SDS011;5409;42.620;23.316;2023-05-29T06:24:21;5.22;;;4.18;;
10715;SDS011;5409;42.620;23.316;2023-05-29T06:26:48;7.35;;;4.72;;
10715;SDS011;5409;42.620;23.316;2023-05-29T06:29:15;10.98;;;4.43;;
10715;SDS011;5409;42.620;23.316;2023-05-29T06:31:41;7.93;;;4.55;;
10715;SDS011;5409;42.620;23.316;2023-05-29T06:34:08;9.73;;;5.07;;
10715;SDS011;5409;42.620;23.316;2023-05-29T06:36:36;7.50;;;4.88;;
10715;SDS011;5409;42.620;23.316;2023-05-29T06:39:03;6.20;;;4.15;;
10715;SDS011;5409;42.620;23.316;2023-05-29T06:41:30;6.40;;;4.28;;
10715;SDS011;5409;42.620;23.316;2023-05-29T06:43:56;6.38;;;4.32;;
10715;SDS011;5409;42.620;23.316;2023-05-29T06:46:22;7.13;;;4.68;;
10715;SDS011;5409;42.620;23.316;2023-05-29T06:48:49;6.20;;;4.15;;
10715;SDS011;5409;42.620;23.316;2023-05-29T06:51:15;6.82;;;4.10;;
10715;SDS011;5409;42.620;23.316;2023-05-29T06:53:43;7.38;;;4.75;;
10715;SDS011;5409;42.620;23.316;2023-05-29T06:56:11;5.15;;;4.00;;
10715;SDS011;5409;42.620;23.316;2023-05-29T06:58:37;6.18;;;3.92;;
10715;SDS011;5409;42.620;23.316;2023-05-29T07:01:04;6.72;;;3.88;;
10715;SDS011;5409;42.620;23.316;2023-05-29T07:03:31;7.00;;;3.88;;
10715;SDS011;5409;42.620;23.316;2023-05-29T07:05:58;5.78;;;4.10;;
10715;SDS011;5409;42.620;23.316;2023-05-29T07:08:24;7.72;;;3.75;;
10715;SDS011;5409;42.620;23.316;2023-05-29T07:10:52;6.97;;;3.58;;
10715;SDS011;5409;42.620;23.316;2023-05-29T07:13:19;5.07;;;3.38;;
10715;SDS011;5409;42.620;23.316;2023-05-29T07:15:45;5.75;;;3.05;;
10715;SDS011;5409;42.620;23.316;2023-05-29T07:18:12;5.68;;;2.85;;
10715;SDS011;5409;42.620;23.316;2023-05-29T07:20:39;3.53;;;2.92;;
10715;SDS011;5409;42.620;23.316;2023-05-29T07:23:05;3.03;;;2.72;;
10715;SDS011;5409;42.620;23.316;2023-05-29T07:25:32;3.40;;;2.70;;
10715;SDS011;5409;42.620;23.316;2023-05-29T07:28:00;4.40;;;2.35;;
10715;SDS011;5409;42.620;23.316;2023-05-29T07:30:26;3.70;;;2.20;;
10715;SDS011;5409;42.620;23.316;2023-05-29T07:32:53;7.70;;;2.88;;
10715;SDS011;5409;42.620;23.316;2023-05-29T07:35:19;3.92;;;2.50;;
10715;SDS011;5409;42.620;23.316;2023-05-29T07:37:46;3.33;;;2.65;;
10715;SDS011;5409;42.620;23.316;2023-05-29T07:40:14;2.38;;;2.03;;
10715;SDS011;5409;42.620;23.316;2023-05-29T07:42:41;3.45;;;2.55;;
10715;SDS011;5409;42.620;23.316;2023-05-29T07:45:09;3.15;;;2.85;;
10715;SDS011;5409;42.620;23.316;2023-05-29T07:47:36;4.68;;;3.30;;
10715;SDS011;5409;42.620;23.316;2023-05-29T07:50:03;5.53;;;3.10;;
10715;SDS011;5409;42.620;23.316;2023-05-29T07:52:31;3.72;;;3.00;;
10715;SDS011;5409;42.620;23.316;2023-05-29T07:54:57;4.10;;;3.10;;
10715;SDS011;5409;42.620;23.316;2023-05-29T07:57:24;4.70;;;2.97;;
10715;SDS011;5409;42.620;23.316;2023-05-29T07:59:50;6.30;;;3.53;;
10715;SDS011;5409;42.620;23.316;2023-05-29T08:02:18;5.85;;;2.95;;
10715;SDS011;5409;42.620;23.316;2023-05-29T08:04:46;5.97;;;3.70;;
10715;SDS011;5409;42.620;23.316;2023-05-29T08:07:12;4.25;;;3.17;;
10715;SDS011;5409;42.620;23.316;2023-05-29T08:09:39;7.97;;;4.35;;
10715;SDS011;5409;42.620;23.316;2023-05-29T08:12:05;5.32;;;3.17;;
10715;SDS011;5409;42.620;23.316;2023-05-29T08:14:32;5.03;;;2.72;;
10715;SDS011;5409;42.620;23.316;2023-05-29T08:16:58;2.92;;;2.55;;
10715;SDS011;5409;42.620;23.316;2023-05-29T08:19:26;6.95;;;3.55;;
10715;SDS011;5409;42.620;23.316;2023-05-29T08:21:52;3.38;;;2.67;;
10715;SDS011;5409;42.620;23.316;2023-05-29T08:24:19;4.47;;;4.00;;
10715;SDS011;5409;42.620;23.316;2023-05-29T08:26:46;5.00;;;2.70;;
10715;SDS011;5409;42.620;23.316;2023-05-29T08:29:12;3.83;;;2.80;;
10715;SDS011;5409;42.620;23.316;2023-05-29T08:31:39;6.18;;;2.63;;
10715;SDS011;5409;42.620;23.316;2023-05-29T08:34:05;6.65;;;3.20;;
10715;SDS011;5409;42.620;23.316;2023-05-29T08:36:34;7.47;;;3.60;;
10715;SDS011;5409;42.620;23.316;2023-05-29T08:39:00;6.47;;;3.30;;
10715;SDS011;5409;42.620;23.316;2023-05-29T08:41:28;5.32;;;3.28;;
10715;SDS011;5409;42.620;23.316;2023-05-29T08:43:57;4.30;;;2.88;;
10715;SDS011;5409;42.620;23.316;2023-05-29T08:46:25;3.38;;;2.67;;
10715;SDS011;5409;42.620;23.316;2023-05-29T08:48:53;2.92;;;2.50;;
10715;SDS011;5409;42.620;23.316;2023-05-29T08:51:20;2.75;;;2.38;;
10715;SDS011;5409;42.620;23.316;2023-05-29T08:53:48;3.83;;;2.92;;
10715;SDS011;5409;42.620;23.316;2023-05-29T08:56:15;4.10;;;2.78;;
10715;SDS011;5409;42.620;23.316;2023-05-29T08:58:42;7.25;;;2.70;;
10715;SDS011;5409;42.620;23.316;2023-05-29T09:01:10;5.72;;;3.00;;
10715;SDS011;5409;42.620;23.316;2023-05-29T09:03:37;4.78;;;2.70;;
10715;SDS011;5409;42.620;23.316;2023-05-29T09:06:04;3.42;;;2.80;;
10715;SDS011;5409;42.620;23.316;2023-05-29T09:08:32;2.97;;;2.38;;
10715;SDS011;5409;42.620;23.316;2023-05-29T09:11:00;2.95;;;2.60;;
10715;SDS011;5409;42.620;23.316;2023-05-29T09:13:26;2.60;;;2.38;;
10715;SDS011;5409;42.620;23.316;2023-05-29T09:15:56;3.55;;;2.78;;
10715;SDS011;5409;42.620;23.316;2023-05-29T09:18:23;3.22;;;2.50;;
10715;SDS011;5409;42.620;23.316;2023-05-29T09:20:49;5.60;;;2.85;;
10715;SDS011;5409;42.620;23.316;2023-05-29T09:23:16;3.80;;;2.40;;
10715;SDS011;5409;42.620;23.316;2023-05-29T09:25:44;4.82;;;2.63;;
10715;SDS011;5409;42.620;23.316;2023-05-29T09:28:19;10.48;;;3.20;;
10715;SDS011;5409;42.620;23.316;2023-05-29T09:30:49;3.42;;;2.72;;
10715;SDS011;5409;42.620;23.316;2023-05-29T09:33:15;3.88;;;2.55;;
10715;SDS011;5409;42.620;23.316;2023-05-29T09:35:42;5.15;;;2.60;;
10715;SDS011;5409;42.620;23.316;2023-05-29T09:38:10;2.85;;;2.28;;
10715;SDS011;5409;42.620;23.316;2023-05-29T09:40:37;2.80;;;2.60;;
10715;SDS011;5409;42.620;23.316;2023-05-29T09:43:04;3.35;;;2.70;;
10715;SDS011;5409;42.620;23.316;2023-05-29T09:45:33;3.97;;;2.78;;
10715;SDS011;5409;42.620;23.316;2023-05-29T09:48:02;3.00;;;2.38;;
10715;SDS011;5409;42.620;23.316;2023-05-29T09:50:28;3.60;;;2.45;;
10715;SDS011;5409;42.620;23.316;2023-05-29T09:52:56;5.28;;;2.40;;
10715;SDS011;5409;42.620;23.316;2023-05-29T09:55:23;3.28;;;2.60;;
10715;SDS011;5409;42.620;23.316;2023-05-29T09:57:52;3.83;;;2.85;;
10715;SDS011;5409;42.620;23.316;2023-05-29T10:00:19;3.30;;;2.50;;
10715;SDS011;5409;42.620;23.316;2023-05-29T10:02:48;5.15;;;2.67;;
10715;SDS011;5409;42.620;23.316;2023-05-29T10:05:15;5.22;;;2.38;;
10715;SDS011;5409;42.620;23.316;2023-05-29T10:07:43;3.05;;;2.70;;
10715;SDS011;5409;42.620;23.316;2023-05-29T10:10:11;2.97;;;2.60;;
10715;SDS011;5409;42.620;23.316;2023-05-29T10:12:39;2.95;;;2.65;;
10715;SDS011;5409;42.620;23.316;2023-05-29T10:15:10;4.47;;;2.75;;
10715;SDS011;5409;42.620;23.316;2023-05-29T10:17:38;2.97;;;2.70;;
10715;SDS011;5409;42.620;23.316;2023-05-29T10:20:07;4.43;;;2.63;;
10715;SDS011;5409;42.620;23.316;2023-05-29T10:22:36;3.80;;;2.72;;
10715;SDS011;5409;42.620;23.316;2023-05-29T10:25:06;4.88;;;2.22;;
10715;SDS011;5409;42.620;23.316;2023-05-29T10:27:33;3.42;;;2.28;;
10715;SDS011;5409;42.620;23.316;2023-05-29T10:30:02;3.67;;;2.50;;
10715;SDS011;5409;42.620;23.316;2023-05-29T10:32:32;2.80;;;2.60;;
10715;SDS011;5409;42.620;23.316;2023-05-29T10:35:00;3.45;;;2.80;;
10715;SDS011;5409;42.620;23.316;2023-05-29T10:37:35;3.25;;;2.38;;
10715;SDS011;5409;42.620;23.316;2023-05-29T10:40:03;4.53;;;2.65;;
10715;SDS011;5409;42.620;23.316;2023-05-29T10:42:41;3.72;;;2.72;;
10715;SDS011;5409;42.620;23.316;2023-05-29T10:45:08;3.53;;;2.70;;
10715;SDS011;5409;42.620;23.316;2023-05-29T10:47:35;7.57;;;3.05;;
10715;SDS011;5409;42.620;23.316;2023-05-29T10:50:02;4.97;;;2.47;;
10715;SDS011;5409;42.620;23.316;2023-05-29T10:52:30;4.38;;;2.33;;
10715;SDS011;5409;42.620;23.316;2023-05-29T10:54:58;7.38;;;2.70;;
10715;SDS011;5409;42.620;23.316;2023-05-29T10:57:25;7.15;;;3.08;;
10715;SDS011;5409;42.620;23.316;2023-05-29T11:00:05;4.53;;;3.08;;
10715;SDS011;5409;42.620;23.316;2023-05-29T11:02:38;5.38;;;3.13;;
10715;SDS011;5409;42.620;23.316;2023-05-29T11:05:06;7.10;;;3.58;;
10715;SDS011;5409;42.620;23.316;2023-05-29T11:07:50;7.20;;;3.40;;
10715;SDS011;5409;42.620;23.316;2023-05-29T11:10:21;8.15;;;3.60;;
10715;SDS011;5409;42.620;23.316;2023-05-29T11:13:05;7.13;;;3.67;;
10715;SDS011;5409;42.620;23.316;2023-05-29T11:15:32;5.47;;;3.97;;
10715;SDS011;5409;42.620;23.316;2023-05-29T11:18:05;4.97;;;3.85;;
10715;SDS011;5409;42.620;23.316;2023-05-29T11:20:35;5.55;;;4.18;;
10715;SDS011;5409;42.620;23.316;2023-05-29T11:23:03;5.05;;;3.85;;
10715;SDS011;5409;42.620;23.316;2023-05-29T11:25:34;4.78;;;4.18;;
10715;SDS011;5409;42.620;23.316;2023-05-29T11:28:01;16.55;;;5.03;;
10715;SDS011;5409;42.620;23.316;2023-05-29T11:30:28;5.68;;;3.30;;
10715;SDS011;5409;42.620;23.316;2023-05-29T11:32:55;8.10;;;3.35;;
10715;SDS011;5409;42.620;23.316;2023-05-29T11:35:26;10.23;;;3.70;;
10715;SDS011;5409;42.620;23.316;2023-05-29T11:37:55;6.88;;;2.80;;
10715;SDS011;5409;42.620;23.316;2023-05-29T11:40:22;2.90;;;2.20;;
10715;SDS011;5409;42.620;23.316;2023-05-29T11:42:50;3.88;;;2.50;;
10715;SDS011;5409;42.620;23.316;2023-05-29T11:45:18;6.22;;;2.17;;
10715;SDS011;5409;42.620;23.316;2023-05-29T11:47:51;3.95;;;2.33;;
10715;SDS011;5409;42.620;23.316;2023-05-29T11:50:18;2.67;;;2.15;;
10715;SDS011;5409;42.620;23.316;2023-05-29T11:52:45;3.75;;;2.40;;
10715;SDS011;5409;42.620;23.316;2023-05-29T11:55:12;2.65;;;2.17;;
10715;SDS011;5409;42.620;23.316;2023-05-29T11:57:38;3.85;;;2.20;;
10715;SDS011;5409;42.620;23.316;2023-05-29T12:00:07;4.25;;;2.72;;
10715;SDS011;5409;42.620;23.316;2023-05-29T12:02:35;3.00;;;2.33;;
10715;SDS011;5409;42.620;23.316;2023-05-29T12:05:02;4.10;;;2.67;;
10715;SDS011;5409;42.620;23.316;2023-05-29T12:07:30;6.72;;;3.00;;
10715;SDS011;5409;42.620;23.316;2023-05-29T12:09:56;6.47;;;3.00;;
10715;SDS011;5409;42.620;23.316;2023-05-29T12:12:23;6.50;;;4.45;;
10715;SDS011;5409;42.620;23.316;2023-05-29T12:14:50;8.25;;;4.35;;
10715;SDS011;5409;42.620;23.316;2023-05-29T12:17:18;11.35;;;4.95;;
10715;SDS011;5409;42.620;23.316;2023-05-29T12:19:45;13.57;;;6.05;;
10715;SDS011;5409;42.620;23.316;2023-05-29T12:22:12;17.60;;;6.50;;
10715;SDS011;5409;42.620;23.316;2023-05-29T12:24:38;12.85;;;5.50;;
10715;SDS011;5409;42.620;23.316;2023-05-29T12:27:05;14.55;;;6.20;;
10715;SDS011;5409;42.620;23.316;2023-05-29T12:29:33;9.57;;;6.10;;
10715;SDS011;5409;42.620;23.316;2023-05-29T12:32:00;13.73;;;6.28;;
10715;SDS011;5409;42.620;23.316;2023-05-29T12:34:29;8.48;;;5.93;;
10715;SDS011;5409;42.620;23.316;2023-05-29T12:37:03;6.05;;;5.07;;
10715;SDS011;5409;42.620;23.316;2023-05-29T12:39:30;6.57;;;5.25;;
10715;SDS011;5409;42.620;23.316;2023-05-29T12:41:57;8.35;;;5.35;;
10715;SDS011;5409;42.620;23.316;2023-05-29T12:44:23;9.32;;;4.60;;
10715;SDS011;5409;42.620;23.316;2023-05-29T12:46:55;4.97;;;4.43;;
10715;SDS011;5409;42.620;23.316;2023-05-29T12:49:22;5.90;;;4.43;;
10715;SDS011;5409;42.620;23.316;2023-05-29T12:51:52;7.47;;;4.35;;
10715;SDS011;5409;42.620;23.316;2023-05-29T12:54:18;5.53;;;4.35;;
10715;SDS011;5409;42.620;23.316;2023-05-29T12:56:45;7.07;;;4.30;;
10715;SDS011;5409;42.620;23.316;2023-05-29T12:59:12;5.70;;;4.47;;
10715;SDS011;5409;42.620;23.316;2023-05-29T13:01:39;5.72;;;4.85;;
10715;SDS011;5409;42.620;23.316;2023-05-29T13:04:06;6.55;;;4.65;;
10715;SDS011;5409;42.620;23.316;2023-05-29T13:06:33;6.82;;;4.82;;
10715;SDS011;5409;42.620;23.316;2023-05-29T13:09:01;14.32;;;5.70;;
10715;SDS011;5409;42.620;23.316;2023-05-29T13:11:27;16.90;;;7.22;;
10715;SDS011;5409;42.620;23.316;2023-05-29T13:13:54;11.27;;;6.68;;
10715;SDS011;5409;42.620;23.316;2023-05-29T13:16:21;7.57;;;6.38;;
10715;SDS011;5409;42.620;23.316;2023-05-29T13:18:47;8.90;;;5.88;;
10715;SDS011;5409;42.620;23.316;2023-05-29T13:21:14;8.55;;;5.50;;
10715;SDS011;5409;42.620;23.316;2023-05-29T13:23:40;10.70;;;5.15;;
10715;SDS011;5409;42.620;23.316;2023-05-29T13:26:08;8.50;;;5.78;;
10715;SDS011;5409;42.620;23.316;2023-05-29T13:28:35;9.25;;;6.10;;
10715;SDS011;5409;42.620;23.316;2023-05-29T13:31:01;7.30;;;5.70;;
10715;SDS011;5409;42.620;23.316;2023-05-29T13:33:28;13.63;;;6.25;;
10715;SDS011;5409;42.620;23.316;2023-05-29T13:35:54;13.80;;;6.95;;
10715;SDS011;5409;42.620;23.316;2023-05-29T13:38:20;8.00;;;5.95;;
10715;SDS011;5409;42.620;23.316;2023-05-29T13:40:47;13.75;;;6.55;;
10715;SDS011;5409;42.620;23.316;2023-05-29T13:43:15;11.15;;;6.88;;
10715;SDS011;5409;42.620;23.316;2023-05-29T13:45:41;12.98;;;6.80;;
10715;SDS011;5409;42.620;23.316;2023-05-29T13:48:08;14.63;;;7.03;;
10715;SDS011;5409;42.620;23.316;2023-05-29T13:50:34;7.75;;;6.32;;
10715;SDS011;5409;42.620;23.316;2023-05-29T13:53:01;12.98;;;6.05;;
10715;SDS011;5409;42.620;23.316;2023-05-29T13:55:27;14.30;;;6.03;;
10715;SDS011;5409;42.620;23.316;2023-05-29T13:57:54;9.48;;;6.78;;
10715;SDS011;5409;42.620;23.316;2023-05-29T14:00:24;10.02;;;6.70;;
10715;SDS011;5409;42.620;23.316;2023-05-29T14:02:50;10.15;;;6.93;;
10715;SDS011;5409;42.620;23.316;2023-05-29T14:05:17;12.32;;;7.32;;
10715;SDS011;5409;42.620;23.316;2023-05-29T14:07:43;7.80;;;6.68;;
10715;SDS011;5409;42.620;23.316;2023-05-29T14:10:10;9.15;;;6.70;;
10715;SDS011;5409;42.620;23.316;2023-05-29T14:12:36;9.63;;;6.90;;
10715;SDS011;5409;42.620;23.316;2023-05-29T14:15:03;8.18;;;6.70;;
10715;SDS011;5409;42.620;23.316;2023-05-29T14:17:32;9.65;;;6.85;;
10715;SDS011;5409;42.620;23.316;2023-05-29T14:19:59;8.02;;;7.22;;
10715;SDS011;5409;42.620;23.316;2023-05-29T14:22:29;9.75;;;6.43;;
10715;SDS011;5409;42.620;23.316;2023-05-29T14:24:56;7.55;;;6.50;;
10715;SDS011;5409;42.620;23.316;2023-05-29T14:27:24;8.32;;;6.75;;
10715;SDS011;5409;42.620;23.316;2023-05-29T14:29:50;10.85;;;6.80;;
10715;SDS011;5409;42.620;23.316;2023-05-29T14:32:17;9.68;;;6.18;;
10715;SDS011;5409;42.620;23.316;2023-05-29T14:34:45;10.82;;;6.35;;
10715;SDS011;5409;42.620;23.316;2023-05-29T14:37:11;7.63;;;6.25;;
10715;SDS011;5409;42.620;23.316;2023-05-29T14:39:38;9.18;;;6.88;;
10715;SDS011;5409;42.620;23.316;2023-05-29T14:42:05;8.32;;;6.18;;
10715;SDS011;5409;42.620;23.316;2023-05-29T14:44:31;7.78;;;6.15;;
10715;SDS011;5409;42.620;23.316;2023-05-29T14:46:58;7.15;;;4.70;;